createdAt,value
2023-03-04T00:04:37.473Z,93615.78
2023-03-04T00:19:39.286Z,93761.94
2023-03-04T00:34:41.019Z,93565.72
2023-03-04T00:49:42.695Z,93613.38
2023-03-04T01:04:44.548Z,93396.63
2023-03-04T01:19:46.274Z,93474.94
2023-03-04T01:34:47.900Z,93682.13
2023-03-04T01:49:54.842Z,93322.91
2023-03-04T02:04:56.551Z,93431.78
2023-03-04T02:20:05.875Z,93668.44
2023-03-04T02:35:14.262Z,93664.97
2023-03-04T02:50:16.182Z,93290.72
2023-03-04T03:05:18.366Z,93449.50
2023-03-04T03:20:20.839Z,93659.56
2023-03-04T03:35:22.550Z,93348.31
2023-03-04T03:50:24.279Z,93615.78
2023-03-04T04:05:26.464Z,93556.56
2023-03-04T04:20:28.238Z,93372.19
2023-03-04T04:35:30.103Z,93560.56
2023-03-04T04:50:33.028Z,93607.59
2023-03-04T05:05:34.895Z,93336.50
2023-03-04T05:20:36.526Z,93506.88
2023-03-04T05:35:41.016Z,93516.47
2023-03-04T05:50:42.814Z,93395.31
2023-03-04T06:05:45.027Z,93612.00
2023-03-04T06:20:46.877Z,93664.06
2023-03-04T06:35:48.841Z,93595.84
2023-03-04T06:50:50.681Z,93464.22
2023-03-04T07:05:52.382Z,93453.38
2023-03-04T07:20:54.389Z,93442.84
2023-03-04T07:36:00.326Z,93662.56
2023-03-04T07:51:12.924Z,93708.44
2023-03-04T08:06:16.846Z,93438.31
2023-03-04T08:21:20.105Z,93340.41
2023-03-04T08:36:21.825Z,93666.56
2023-03-04T08:51:23.674Z,93552.81
2023-03-04T09:06:25.589Z,93649.88
2023-03-04T09:21:27.322Z,93587.47
2023-03-04T09:36:29.010Z,93167.34
2023-03-04T09:51:36.442Z,93644.09
2023-03-04T10:06:39.894Z,93630.34
2023-03-04T10:21:49.434Z,93532.59
2023-03-04T10:36:53.703Z,93597.47
2023-03-04T10:52:23.527Z,93551.47
2023-03-04T11:07:27.518Z,93234.56
2023-03-04T11:22:30.988Z,93322.56
2023-03-04T11:38:00.688Z,93498.38
2023-03-04T11:53:15.543Z,93504.44
2023-03-04T12:08:27.707Z,93368.75
2023-03-04T12:24:00.147Z,93464.78
2023-03-04T12:39:22.698Z,93453.75
2023-03-04T12:54:40.611Z,93448.44
2023-03-04T13:09:54.870Z,93415.81
2023-03-04T13:24:58.001Z,93348.69
2023-03-04T13:40:38.378Z,93370.44
2023-03-04T13:55:43.245Z,93382.50
2023-03-04T14:10:44.924Z,93272.81
2023-03-04T14:25:46.552Z,93278.97
2023-03-04T14:41:02.054Z,93191.56
2023-03-04T14:56:05.580Z,93337.78
2023-03-04T15:11:08.774Z,93327.91
2023-03-04T15:26:11.919Z,93324.38
2023-03-04T15:41:17.934Z,93310.19
2023-03-04T15:56:25.784Z,93216.78
2023-03-04T16:11:30.260Z,93283.56
2023-03-04T16:26:33.408Z,93142.56
2023-03-04T16:41:37.114Z,93192.50
2023-03-04T16:56:38.885Z,93167.13
2023-03-04T17:11:40.703Z,93290.81
2023-03-04T17:26:42.741Z,93178.75
2023-03-04T17:41:44.410Z,93314.66
2023-03-04T17:56:46.857Z,93266.00
2023-03-04T18:11:49.009Z,93250.91
2023-03-04T18:26:50.749Z,93333.72
2023-03-04T18:41:52.474Z,93217.47
2023-03-04T18:56:57.640Z,93269.09
2023-03-04T19:11:59.411Z,93341.56
2023-03-04T19:27:01.103Z,93363.13
2023-03-04T19:42:02.950Z,92838.72
2023-03-04T19:57:04.847Z,93088.75
2023-03-04T20:12:06.904Z,93063.41
2023-03-04T20:27:08.657Z,93055.34
2023-03-04T20:42:10.642Z,93317.09
2023-03-04T20:57:12.717Z,93151.34
2023-03-04T21:12:14.522Z,92966.63
2023-03-04T21:27:17.074Z,93239.97
2023-03-04T21:42:19.483Z,93086.84
2023-03-04T21:57:21.185Z,93049.22
2023-03-04T22:12:22.981Z,93146.53
2023-03-04T22:27:24.672Z,92968.53
2023-03-04T22:42:26.353Z,93114.47
2023-03-04T22:57:28.094Z,93184.41
2023-03-04T23:12:29.785Z,93226.66
2023-03-04T23:27:31.600Z,93141.72
2023-03-04T23:42:33.370Z,93075.81
2023-03-04T23:57:35.088Z,93294.25
